createdAt,value
2018-06-28T08:17:05.349Z,59.3
2018-06-28T08:17:55.377Z,59.3
2018-06-28T08:18:45.422Z,59.3
2018-06-28T08:19:35.500Z,59.3
2018-06-28T08:20:25.859Z,59.3
2018-06-28T08:21:15.900Z,59.3
2018-06-28T08:22:06.007Z,59.2
2018-06-28T08:22:55.182Z,59.2
2018-06-28T08:23:46.090Z,59.2
2018-06-28T08:24:35.301Z,59.2
2018-06-28T08:25:26.217Z,59.2
2018-06-28T08:26:15.997Z,59.2
2018-06-28T08:27:06.648Z,59.2
2018-06-28T08:27:56.134Z,59.1
2018-06-28T08:28:45.915Z,59.1
2018-06-28T08:29:36.248Z,59.1
2018-06-28T08:30:25.744Z,59.1
2018-06-28T08:31:16.396Z,59.1
2018-06-28T08:32:06.169Z,59.1
2018-06-28T08:32:56.771Z,59.1
2018-06-28T08:33:46.549Z,59.1
2018-06-28T08:34:36.349Z,59.1
2018-06-28T08:35:26.722Z,59.1
2018-06-28T08:36:17.173Z,59.1
2018-06-28T08:37:06.634Z,59.1
2018-06-28T08:37:56.389Z,59.1
2018-06-28T08:38:46.938Z,59
2018-06-28T08:39:37.275Z,59
2018-06-28T08:40:27.386Z,59
2018-06-28T08:41:16.701Z,59
2018-06-28T08:42:06.900Z,59
2018-06-28T08:42:57.061Z,59
2018-06-28T08:43:47.296Z,59
2018-06-28T08:44:37.697Z,58.9
2018-06-28T08:45:27.452Z,58.9
2018-06-28T08:46:17.285Z,58.9
2018-06-28T08:47:07.819Z,58.9
2018-06-28T08:47:57.371Z,58.9
2018-06-28T08:48:47.679Z,58.9
2018-06-28T08:49:38.050Z,58.9
2018-06-28T08:50:27.553Z,58.9
2018-06-28T08:51:18.160Z,58.9
2018-06-28T08:52:07.768Z,58.9
2018-06-28T08:52:57.799Z,58.9
2018-06-28T08:53:47.797Z,58.9
2018-06-28T08:54:37.973Z,58.9
2018-06-28T08:55:27.912Z,58.9
2018-06-28T08:56:18.548Z,58.8
2018-06-28T08:57:08.607Z,58.8
2018-06-28T08:57:57.930Z,58.8
2018-06-28T08:58:47.939Z,58.8
2018-06-28T08:59:38.282Z,58.8
2018-06-28T09:00:28.571Z,58.8
2018-06-28T09:01:18.325Z,58.8
2018-06-28T09:02:08.696Z,58.8
2018-06-28T09:02:58.767Z,58.8
2018-06-28T09:03:49.155Z,58.8
2018-06-28T09:04:38.102Z,58.8
2018-06-28T09:05:29.227Z,58.8
2018-06-28T09:06:19.317Z,58.8
2018-06-28T09:07:09.056Z,58.7
2018-06-28T09:07:58.646Z,58.7
2018-06-28T09:08:49.448Z,58.7
2018-06-28T09:09:39.273Z,58.7
2018-06-28T09:10:29.038Z,58.7
2018-06-28T09:11:19.460Z,58.7
2018-06-28T09:12:09.452Z,58.7
2018-06-28T09:12:59.769Z,58.6
2018-06-28T09:13:49.817Z,58.6
2018-06-28T09:14:39.645Z,58.6
2018-06-28T09:15:30.310Z,58.6
2018-06-28T09:16:19.759Z,58.6
2018-06-28T09:17:09.814Z,58.6
2018-06-28T09:23:01.168Z,58.5
2018-06-28T09:23:50.608Z,58.5
2018-06-28T09:24:40.410Z,58.5
2018-06-28T09:25:30.703Z,58.5
2018-06-28T09:26:20.480Z,58.5
2018-06-28T09:27:10.841Z,58.5
2018-06-28T09:28:00.925Z,58.5
2018-06-28T09:28:50.441Z,58.4
2018-06-28T09:29:40.490Z,58.4
2018-06-28T09:30:30.905Z,58.4
2018-06-28T09:31:20.870Z,58.4
2018-06-28T09:32:11.211Z,58.4
2018-06-28T09:33:01.253Z,58.4
2018-06-28T09:33:51.347Z,58.4
2018-06-28T09:34:41.146Z,58.4
2018-06-28T09:35:31.452Z,58.4
2018-06-28T09:36:21.535Z,58.4
2018-06-28T09:37:11.317Z,58.4
2018-06-28T09:38:01.649Z,58.4
2018-06-28T09:38:51.766Z,58.4
2018-06-28T09:39:41.822Z,58.3
2018-06-28T09:40:31.843Z,58.3
2018-06-28T09:41:21.653Z,58.3
2018-06-28T09:42:11.426Z,58.3
2018-06-28T09:43:01.757Z,58.3
2018-06-28T09:43:51.835Z,58.3
2018-06-28T09:44:42.015Z,58.3
2018-06-28T09:45:32.254Z,58.3
2018-06-28T09:46:22.273Z,58.3
2018-06-28T09:47:12.331Z,58.3
2018-06-28T09:48:02.129Z,58.3
2018-06-28T09:48:52.198Z,58.3
2018-06-28T09:49:42.244Z,58.3
2018-06-28T09:50:32.598Z,58.2
2018-06-28T09:51:22.402Z,58.2
2018-06-28T09:52:12.469Z,58.2
2018-06-28T09:53:02.788Z,58.2
2018-06-28T09:53:52.561Z,58.2
2018-06-28T09:54:42.908Z,58.2
2018-06-28T09:55:33.007Z,58.2
2018-06-28T09:56:22.221Z,58.1
2018-06-28T09:57:12.833Z,58.1
2018-06-28T09:58:03.184Z,58.1
2018-06-28T09:58:52.669Z,58.1
2018-06-28T09:59:43.001Z,58.1
2018-06-28T10:00:35.006Z,58.1
2018-06-28T10:01:23.139Z,58.1
2018-06-28T10:02:13.504Z,58.1
2018-06-28T10:03:03.561Z,58.1
2018-06-28T10:03:53.304Z,58.1
2018-06-28T10:04:43.726Z,58.1
2018-06-28T10:05:33.743Z,58.1
2018-06-28T10:06:22.682Z,58.1
2018-06-28T10:07:13.346Z,58
2018-06-28T10:08:03.347Z,58
2018-06-28T10:08:53.690Z,58
2018-06-28T10:09:44.053Z,58
2018-06-28T10:10:33.580Z,58
2018-06-28T10:11:23.890Z,58
2018-06-28T10:12:14.252Z,58
2018-06-28T10:13:04.282Z,58
2018-06-28T10:13:54.093Z,57.9
2018-06-28T10:14:44.926Z,57.9
2018-06-28T10:15:34.472Z,57.9
2018-06-28T10:16:24.649Z,57.9
2018-06-28T10:17:14.617Z,57.9
2018-06-28T10:18:05.196Z,57.9
2018-06-28T10:18:54.161Z,57.9
2018-06-28T10:19:44.850Z,57.9
2018-06-28T10:20:34.118Z,57.9
2018-06-28T10:21:24.928Z,57.9
2018-06-28T10:22:14.999Z,57.9
2018-06-28T10:23:05.090Z,57.9
2018-06-28T10:23:54.300Z,57.8
2018-06-28T10:24:45.799Z,57.8
2018-06-28T10:25:34.980Z,57.8
2018-06-28T10:26:25.010Z,57.8
2018-06-28T10:27:14.570Z,57.8
2018-06-28T10:28:05.148Z,57.8
2018-06-28T10:28:55.475Z,57.8
2018-06-28T10:35:35.979Z,57.7
2018-06-28T10:36:26.043Z,57.7
2018-06-28T10:37:16.096Z,57.7
2018-06-28T10:38:06.148Z,57.7
2018-06-28T10:38:55.964Z,57.7
2018-06-28T10:39:46.364Z,57.7
2018-06-28T10:40:35.871Z,57.6
2018-06-28T10:41:26.432Z,57.6
2018-06-28T10:42:16.476Z,57.6
2018-06-28T10:43:06.296Z,57.6
2018-06-28T10:43:56.620Z,57.6
2018-06-28T10:44:46.707Z,57.6
2018-06-28T10:45:36.761Z,57.6
2018-06-28T10:46:26.548Z,57.6
2018-06-28T10:47:16.583Z,57.6
2018-06-28T10:48:06.974Z,57.6
2018-06-28T10:48:56.705Z,57.6
2018-06-28T10:49:47.084Z,57.6
2018-06-28T10:50:37.170Z,57.6
2018-06-28T10:51:26.346Z,57.5
2018-06-28T10:52:17.003Z,57.5
2018-06-28T10:53:06.751Z,57.5
2018-06-28T10:53:57.798Z,57.5
2018-06-28T10:54:47.462Z,57.5
2018-06-28T10:55:37.490Z,57.5
2018-06-28T10:56:27.615Z,57.5
2018-06-28T10:57:17.641Z,57.4
2018-06-28T10:58:07.456Z,57.4
2018-06-28T10:58:57.200Z,57.4
2018-06-28T10:59:47.577Z,57.4
2018-06-28T11:00:37.903Z,57.4
2018-06-28T11:01:27.688Z,57.4
2018-06-28T11:02:18.008Z,57.4
2018-06-28T11:03:07.806Z,57.4
2018-06-28T11:03:58.176Z,57.4
2018-06-28T11:04:47.907Z,57.4
2018-06-28T11:05:38.280Z,57.4
2018-06-28T11:06:27.278Z,57.4
2018-06-28T11:07:18.144Z,57.3
2018-06-28T11:08:08.233Z,57.3
2018-06-28T11:08:57.955Z,57.3
2018-06-28T11:09:48.316Z,57.3
2018-06-28T11:10:38.628Z,57.3
2018-06-28T11:11:28.424Z,57.3
2018-06-28T11:12:18.818Z,57.3
2018-06-28T11:13:08.554Z,57.3
2018-06-28T11:13:58.600Z,57.3
2018-06-28T11:14:48.971Z,57.3
2018-06-28T11:15:39.028Z,57.3
2018-06-28T11:16:29.069Z,57.3
2018-06-28T11:17:19.132Z,57.3
2018-06-28T11:18:08.923Z,57.3
2018-06-28T11:18:58.993Z,57.3
2018-06-28T11:19:49.043Z,57.2
2018-06-28T11:20:39.096Z,57.2
2018-06-28T11:21:29.221Z,57.2
2018-06-28T11:22:19.543Z,57.2
2018-06-28T11:23:09.345Z,57.2
2018-06-28T11:23:59.082Z,57.2
2018-06-28T11:24:49.417Z,57.1
2018-06-28T11:25:39.760Z,57.1
2018-06-28T11:26:29.573Z,57.1
2018-06-28T11:27:18.794Z,57.1
2018-06-28T11:28:09.940Z,57.1
2018-06-28T11:29:00.030Z,57.1
2018-06-28T11:29:50.131Z,57.1
2018-06-28T11:30:39.866Z,57.1
2018-06-28T11:31:29.893Z,57.1
2018-06-28T11:32:19.981Z,57.1
2018-06-28T11:33:10.318Z,57.1
2018-06-28T11:34:00.400Z,57.1
2018-06-28T11:34:50.161Z,57.1
2018-06-28T11:35:39.986Z,57
2018-06-28T11:36:30.037Z,57
2018-06-28T11:37:20.371Z,57
2018-06-28T11:38:10.694Z,57
2018-06-28T11:39:00.507Z,57
2018-06-28T11:39:50.855Z,57
2018-06-28T11:40:40.643Z,57
2018-06-28T11:41:30.958Z,57
2018-06-28T11:42:21.018Z,56.9
2018-06-28T11:43:11.076Z,56.9
2018-06-28T11:44:01.154Z,56.9
2018-06-28T11:44:50.937Z,56.9
2018-06-28T11:45:40.447Z,56.9
2018-06-28T11:46:30.222Z,56.9
2018-06-28T11:47:21.420Z,56.9
2018-06-28T11:48:11.228Z,56.9
2018-06-28T11:49:00.677Z,56.9
2018-06-28T11:49:51.335Z,56.9
2018-06-28T11:50:41.395Z,56.9
2018-06-28T11:51:31.754Z,56.9
2018-06-28T11:52:21.235Z,56.8
2018-06-28T11:53:11.865Z,56.9
2018-06-28T11:54:01.912Z,56.8
2018-06-28T11:54:51.957Z,56.8
2018-06-28T11:55:41.769Z,56.8
2018-06-28T11:56:32.092Z,56.8
2018-06-28T11:57:21.592Z,56.8
2018-06-28T11:58:11.661Z,56.8
2018-06-28T11:59:01.979Z,56.8
2018-06-28T11:59:52.087Z,56.8
2018-06-28T12:00:41.907Z,56.8
2018-06-28T12:01:31.920Z,56.8
2018-06-28T12:02:22.279Z,56.8
2018-06-28T12:03:12.653Z,56.8
2018-06-28T12:04:02.683Z,56.8
2018-06-28T12:04:52.710Z,56.7
2018-06-28T12:05:42.901Z,56.7
2018-06-28T12:06:32.579Z,56.7
2018-06-28T12:07:22.904Z,56.7
2018-06-28T12:08:12.733Z,56.7
2018-06-28T12:09:03.026Z,56.6
2018-06-28T12:09:53.075Z,56.6
2018-06-28T12:10:42.850Z,56.6
2018-06-28T12:11:33.220Z,56.6
2018-06-28T12:12:22.999Z,56.6
2018-06-28T12:13:13.332Z,56.6
2018-06-28T12:14:03.406Z,56.6
2018-06-28T12:14:53.491Z,56.6
2018-06-28T12:15:43.266Z,56.6
2018-06-28T12:16:33.594Z,56.6
2018-06-28T12:17:23.633Z,56.6
2018-06-28T12:18:13.422Z,56.6
2018-06-28T12:19:03.527Z,56.6
2018-06-28T12:19:53.591Z,56.6
2018-06-28T12:20:43.643Z,56.5
2018-06-28T12:21:33.955Z,56.5
2018-06-28T12:22:24.419Z,56.5
2018-06-28T12:23:13.564Z,56.5
2018-06-28T12:24:04.180Z,56.5
2018-06-28T12:24:54.226Z,56.5
2018-06-28T12:25:43.758Z,56.5
2018-06-28T12:26:34.070Z,56.4
2018-06-28T12:27:24.405Z,56.4
2018-06-28T12:28:14.194Z,56.4
2018-06-28T12:29:04.524Z,56.4
2018-06-28T12:29:54.601Z,56.4
2018-06-28T12:30:44.386Z,56.4
2018-06-28T12:31:34.710Z,56.4
2018-06-28T12:32:24.776Z,56.4
2018-06-28T12:33:14.582Z,56.4
2018-06-28T12:34:04.921Z,56.4
2018-06-28T12:34:54.973Z,56.4
2018-06-28T12:35:45.023Z,56.4
2018-06-28T12:36:35.092Z,56.4
2018-06-28T12:37:24.872Z,56.3
2018-06-28T12:38:14.994Z,56.3
2018-06-28T12:39:05.367Z,56.3
2018-06-28T12:39:55.081Z,56.3
2018-06-28T12:40:44.856Z,56.3
2018-06-28T12:41:35.197Z,56.3
2018-06-28T12:42:25.264Z,56.3
2018-06-28T12:43:15.617Z,56.3
2018-06-28T12:44:05.651Z,56.3
2018-06-28T12:44:55.749Z,56.3
2018-06-28T12:45:45.794Z,56.3
2018-06-28T12:46:36.478Z,56.2
2018-06-28T12:47:25.911Z,56.3
2018-06-28T12:48:15.724Z,56.2
2018-06-28T12:49:05.036Z,56.2
2018-06-28T12:49:56.142Z,56.2
2018-06-28T12:50:46.179Z,56.2
2018-06-28T12:51:35.976Z,56.2
2018-06-28T12:52:26.058Z,56.1
2018-06-28T12:53:16.373Z,56.1
2018-06-28T12:54:06.489Z,56.1
2018-06-28T12:54:56.471Z,56.1
2018-06-28T12:55:46.292Z,56.1
2018-06-28T12:56:36.346Z,56.1
2018-06-28T12:57:26.675Z,56.1
2018-06-28T12:58:16.175Z,56.1
2018-06-28T12:59:06.245Z,56.1
2018-06-28T12:59:56.544Z,56.1
2018-06-28T13:00:46.828Z,56.1
2018-06-28T13:01:36.771Z,56.1
2018-06-28T13:02:27.082Z,56.1
2018-06-28T13:03:17.141Z,56.1
2018-06-28T13:04:06.905Z,56
2018-06-28T13:04:56.957Z,56
2018-06-28T13:05:46.462Z,56
2018-06-28T13:06:37.375Z,56
2018-06-28T13:07:27.163Z,56
2018-06-28T13:08:17.268Z,56
2018-06-28T13:09:07.615Z,55.9
2018-06-28T13:09:57.610Z,56
2018-06-28T13:10:47.683Z,55.9
2018-06-28T13:11:37.495Z,55.9
2018-06-28T13:12:27.290Z,55.9
2018-06-28T13:13:17.342Z,55.9
2018-06-28T13:14:07.980Z,55.9
2018-06-28T13:14:57.727Z,55.9
2018-06-28T13:15:48.052Z,55.9
2018-06-28T13:16:37.832Z,55.9
2018-06-28T13:17:28.186Z,55.9
2018-06-28T13:18:17.681Z,55.9
2018-06-28T13:19:08.359Z,55.9
2018-06-28T13:19:58.749Z,55.8
2018-06-28T13:20:48.456Z,55.8
2018-06-28T13:21:38.221Z,55.8
2018-06-28T13:22:28.590Z,55.8
2018-06-28T13:23:18.629Z,55.8
2018-06-28T13:24:08.421Z,55.8
2018-06-28T13:24:58.758Z,55.8
2018-06-28T13:25:48.272Z,55.8
2018-06-28T13:26:38.628Z,55.8
2018-06-28T13:27:29.012Z,55.8
2018-06-28T13:28:18.997Z,55.8
2018-06-28T13:29:08.807Z,55.8
2018-06-28T13:29:58.835Z,55.8
2018-06-28T13:30:49.229Z,55.8
2018-06-28T13:31:38.455Z,55.7
2018-06-28T13:32:29.327Z,55.8
2018-06-28T13:33:19.148Z,55.7
2018-06-28T13:34:08.983Z,55.7
2018-06-28T13:34:59.544Z,55.7
2018-06-28T13:35:48.740Z,55.7
2018-06-28T13:36:39.047Z,55.7
2018-06-28T13:37:29.709Z,55.7
2018-06-28T13:38:19.183Z,55.6
2018-06-28T13:39:09.756Z,55.6
2018-06-28T13:39:59.865Z,55.6
2018-06-28T13:40:51.779Z,55.6
2018-06-28T13:41:45.195Z,55.6
2018-06-28T13:42:29.882Z,55.6
2018-06-28T13:43:20.128Z,55.6
2018-06-28T13:44:09.682Z,55.6
2018-06-28T13:44:59.983Z,55.6
2018-06-28T13:45:50.050Z,55.6
2018-06-28T13:46:40.435Z,55.6
2018-06-28T13:47:30.492Z,55.6
2018-06-28T13:48:20.286Z,55.6
2018-06-28T13:49:11.114Z,55.5
2018-06-28T13:50:00.374Z,55.5
2018-06-28T13:50:50.429Z,55.5
2018-06-28T13:51:40.494Z,55.5
2018-06-28T13:52:30.287Z,55.5
2018-06-28T13:53:20.593Z,55.5
2018-06-28T13:54:10.977Z,55.5
2018-06-28T13:55:01.048Z,55.4
2018-06-28T13:55:50.293Z,55.4
2018-06-28T13:56:40.394Z,55.4
2018-06-28T13:57:31.246Z,55.4
2018-06-28T13:58:21.286Z,55.4
2018-06-28T13:59:10.774Z,55.4
2018-06-28T14:00:01.415Z,55.4
2018-06-28T14:00:51.503Z,55.4
2018-06-28T14:01:40.544Z,55.4
2018-06-28T14:02:31.043Z,55.4
2018-06-28T14:03:20.775Z,55.4
2018-06-28T14:04:10.948Z,55.4
2018-06-28T14:05:01.770Z,55.3
2018-06-28T14:05:51.133Z,55.4
2018-06-28T14:06:41.915Z,55.4
2018-06-28T14:07:31.683Z,55.3
2018-06-28T14:08:21.474Z,55.3
2018-06-28T14:09:12.085Z,55.3
2018-06-28T14:10:01.587Z,55.3
2018-06-28T14:10:51.648Z,55.3
2018-06-28T14:11:42.279Z,55.3
2018-06-28T14:12:32.330Z,55.3
2018-06-28T14:13:21.840Z,55.3
2018-06-28T14:14:12.195Z,55.3
2018-06-28T14:15:02.348Z,55.3
2018-06-28T14:15:52.347Z,55.3
2018-06-28T14:16:42.632Z,55.3
2018-06-28T14:17:32.715Z,55.3
2018-06-28T14:18:21.932Z,55.2
2018-06-28T14:19:12.556Z,55.2
2018-06-28T14:20:02.627Z,55.2
2018-06-28T14:20:52.684Z,55.2
2018-06-28T14:21:42.996Z,55.2
2018-06-28T14:22:32.586Z,55.2
2018-06-28T14:23:22.866Z,55.2
2018-06-28T14:24:12.930Z,55.1
2018-06-28T14:25:03.268Z,55.1
2018-06-28T14:25:54.038Z,55.1
2018-06-28T14:26:43.100Z,55.1
2018-06-28T14:27:33.473Z,55.1
2018-06-28T14:28:23.527Z,55.1
2018-06-28T14:29:13.027Z,55.1
2018-06-28T14:30:03.640Z,55.1
2018-06-28T14:30:53.687Z,55.1
2018-06-28T14:31:43.798Z,55.1
2018-06-28T14:32:33.878Z,55.1
2018-06-28T14:33:23.620Z,55.1
2018-06-28T14:34:13.947Z,55.1
2018-06-28T14:35:04.357Z,55.1
2018-06-28T14:35:53.846Z,55
2018-06-28T14:36:44.140Z,55
2018-06-28T14:37:34.243Z,55
2018-06-28T14:38:24.295Z,55
2018-06-28T14:39:14.362Z,55
2018-06-28T14:40:03.831Z,55
2018-06-28T14:40:54.178Z,54.9
2018-06-28T14:41:45.103Z,54.9
2018-06-28T14:42:34.555Z,54.9
2018-06-28T14:43:24.398Z,54.9
2018-06-28T14:44:14.699Z,54.9
2018-06-28T14:45:05.872Z,54.9
2018-06-28T14:45:54.822Z,54.9
2018-06-28T14:46:44.879Z,54.9
2018-06-28T14:47:35.659Z,54.9
2018-06-28T14:48:25.051Z,54.9
2018-06-28T14:49:14.851Z,54.9
2018-06-28T14:50:04.904Z,54.9
2018-06-28T14:50:55.230Z,54.9
2018-06-28T14:51:45.297Z,54.9
2018-06-28T14:52:34.565Z,54.9
2018-06-28T14:53:25.442Z,54.8
2018-06-28T14:54:15.202Z,54.8
2018-06-28T14:55:05.012Z,54.8
2018-06-28T14:55:55.600Z,54.8
2018-06-28T14:56:45.675Z,54.8
2018-06-28T14:57:35.720Z,54.8
2018-06-28T14:58:25.222Z,54.8
2018-06-28T14:59:15.835Z,54.8
2018-06-28T15:00:05.932Z,54.8
2018-06-28T15:00:56.036Z,54.8
2018-06-28T15:01:45.493Z,54.8
2018-06-28T15:02:35.512Z,54.8
2018-06-28T15:03:25.317Z,54.8
2018-06-28T15:04:15.445Z,54.7
2018-06-28T15:05:06.005Z,54.7
2018-06-28T15:05:55.832Z,54.7
2018-06-28T15:06:46.142Z,54.7
2018-06-28T15:07:36.222Z,54.7
2018-06-28T15:08:26.275Z,54.7
2018-06-28T15:09:16.609Z,54.7
2018-06-28T15:10:06.678Z,54.7
2018-06-28T15:10:56.712Z,54.6
2018-06-28T15:11:46.847Z,54.6
2018-06-28T15:12:36.844Z,54.6
2018-06-28T15:13:26.653Z,54.6
2018-06-28T15:14:16.969Z,54.6
2018-06-28T15:15:07.030Z,54.6
2018-06-28T15:15:57.093Z,54.6
2018-06-28T15:16:47.165Z,54.6
2018-06-28T15:17:37.218Z,54.6
2018-06-28T15:18:27.313Z,54.6
2018-06-28T15:19:17.015Z,54.6
2018-06-28T15:20:07.131Z,54.6
2018-06-28T15:20:57.534Z,54.6
2018-06-28T15:21:47.559Z,54.6
2018-06-28T15:22:37.650Z,54.6
2018-06-28T15:23:27.671Z,54.5
2018-06-28T15:24:17.741Z,54.5
2018-06-28T15:25:07.826Z,54.5
2018-06-28T15:25:57.608Z,54.5
2018-06-28T15:26:47.946Z,54.5
2018-06-28T15:27:38.272Z,54.5
2018-06-28T15:28:28.050Z,54.5
2018-06-28T15:29:17.063Z,54.4
2018-06-28T15:30:07.611Z,54.4
2018-06-28T15:30:57.700Z,54.4
2018-06-28T15:31:48.352Z,54.4
2018-06-28T15:32:37.828Z,54.4
2018-06-28T15:33:28.702Z,54.4
2018-06-28T15:34:17.948Z,54.4
2018-06-28T15:35:08.555Z,54.4
2018-06-28T15:35:58.413Z,54.4
2018-06-28T15:36:48.692Z,54.4
2018-06-28T15:37:38.163Z,54.4
2018-06-28T15:38:28.240Z,54.4
2018-06-28T15:39:18.872Z,54.4
2018-06-28T15:40:08.920Z,54.3
2018-06-28T15:40:58.276Z,54.3
2018-06-28T15:41:49.067Z,54.3
2018-06-28T15:42:39.097Z,54.3
2018-06-28T15:43:28.324Z,54.3
2018-06-28T15:44:19.235Z,54.3
2018-06-28T15:45:09.028Z,54.3
2018-06-28T15:45:59.410Z,54.3
2018-06-28T15:46:48.609Z,54.3
2018-06-28T15:47:39.257Z,54.3
2018-06-28T15:48:29.305Z,54.3
2018-06-28T15:49:19.620Z,54.3
2018-06-28T15:50:09.692Z,54.3
2018-06-28T15:50:59.727Z,54.3
2018-06-28T15:51:49.798Z,54.2
2018-06-28T15:52:39.885Z,54.2
2018-06-28T15:53:29.638Z,54.2
2018-06-28T15:54:19.421Z,54.2
2018-06-28T15:55:09.464Z,54.2
2018-06-28T15:55:59.821Z,54.2
2018-06-28T15:56:50.169Z,54.2
2018-06-28T15:57:40.349Z,54.1
2018-06-28T15:58:29.800Z,54.2
2018-06-28T15:59:19.891Z,54.1
2018-06-28T16:00:10.457Z,54.1
2018-06-28T16:01:00.216Z,54.1
2018-06-28T16:01:50.256Z,54.1
2018-06-28T16:02:40.137Z,54.1
2018-06-28T16:03:30.402Z,54.1
2018-06-28T16:04:20.466Z,54.1
2018-06-28T16:05:10.574Z,54.1
2018-06-28T16:06:00.879Z,54.1
2018-06-28T16:06:50.083Z,54.1
2018-06-28T16:07:41.012Z,54.1
2018-06-28T16:08:31.035Z,54.1
2018-06-28T16:09:21.109Z,54.1
2018-06-28T16:10:10.430Z,54.1
2018-06-28T16:11:00.995Z,54
2018-06-28T16:11:50.838Z,54
2018-06-28T16:12:40.787Z,54
2018-06-28T16:13:31.415Z,54
2018-06-28T16:14:21.467Z,54
2018-06-28T16:15:10.687Z,54
2018-06-28T16:16:01.348Z,53.9
2018-06-28T16:16:50.964Z,53.9
2018-06-28T16:17:41.011Z,53.9
2018-06-28T16:18:31.504Z,53.9
2018-06-28T16:19:21.834Z,53.9
2018-06-28T16:20:11.925Z,53.9
2018-06-28T16:21:01.458Z,53.9
2018-06-28T16:21:52.058Z,53.9
2018-06-28T16:22:42.131Z,53.9
2018-06-28T16:23:32.574Z,53.9
2018-06-28T16:24:21.715Z,53.9
2018-06-28T16:25:12.018Z,53.9
2018-06-28T16:26:02.147Z,53.9
2018-06-28T16:26:52.473Z,53.9
2018-06-28T16:27:42.496Z,53.9
2018-06-28T16:28:32.581Z,53.9
2018-06-28T16:29:22.658Z,53.8
2018-06-28T16:30:12.709Z,53.8
2018-06-28T16:31:02.200Z,53.8
2018-06-28T16:31:52.834Z,53.8
2018-06-28T16:32:42.622Z,53.8
2018-06-28T16:33:32.958Z,53.8
2018-06-28T16:34:23.067Z,53.8
2018-06-28T16:35:13.098Z,53.8
2018-06-28T16:36:03.144Z,53.8
2018-06-28T16:36:52.917Z,53.8
2018-06-28T16:37:43.016Z,53.8
2018-06-28T16:38:33.310Z,53.8
2018-06-28T16:39:23.462Z,53.8
2018-06-28T16:40:13.471Z,53.7
2018-06-28T16:41:03.493Z,53.7
2018-06-28T16:41:53.293Z,53.7
2018-06-28T16:42:43.367Z,53.7
2018-06-28T16:43:33.405Z,53.7
2018-06-28T16:44:23.525Z,53.7
2018-06-28T16:45:13.590Z,53.7
2018-06-28T16:46:03.639Z,53.7
2018-06-28T16:46:53.979Z,53.7
2018-06-28T16:47:44.031Z,53.6
2018-06-28T16:48:34.076Z,53.6
2018-06-28T16:49:23.604Z,53.6
2018-06-28T16:50:14.213Z,53.6
2018-06-28T16:51:03.507Z,53.6
2018-06-28T16:51:54.084Z,53.6
2018-06-28T16:52:44.134Z,53.6
2018-06-28T16:53:34.182Z,53.6
2018-06-28T16:54:23.695Z,53.6
2018-06-28T16:55:14.579Z,53.6
2018-06-28T16:56:04.702Z,53.6
2018-06-28T16:56:54.750Z,53.6
2018-06-28T16:57:44.806Z,53.6
2018-06-28T16:58:34.553Z,53.5
2018-06-28T16:59:25.200Z,53.5
2018-06-28T17:00:14.960Z,53.5
2018-06-28T17:01:04.751Z,53.5
2018-06-28T17:01:54.598Z,53.5
2018-06-28T17:02:45.121Z,53.5
2018-06-28T17:03:34.628Z,53.5
2018-06-28T17:04:25.891Z,53.5
2018-06-28T17:05:15.302Z,53.4
2018-06-28T17:06:05.406Z,53.4
2018-06-28T17:06:55.449Z,53.4
2018-06-28T17:07:46.077Z,53.4
2018-06-28T17:08:35.570Z,53.4
2018-06-28T17:09:25.366Z,53.4
2018-06-28T17:10:15.410Z,53.4
2018-06-28T17:11:05.771Z,53.4
2018-06-28T17:11:55.810Z,53.4
2018-06-28T17:12:45.880Z,53.4
2018-06-28T17:13:35.378Z,53.4
2018-06-28T17:14:26.169Z,53.4
2018-06-28T17:15:15.776Z,53.4
2018-06-28T17:16:05.595Z,53.4
2018-06-28T17:16:56.271Z,53.4
2018-06-28T17:17:44.954Z,53.4
2018-06-28T17:18:36.042Z,53.3
2018-06-28T17:19:25.580Z,53.3
2018-06-28T17:20:16.661Z,53.3
2018-06-28T17:21:06.519Z,53.3
2018-06-28T17:21:56.042Z,53.3
2018-06-28T17:22:46.387Z,53.3
2018-06-28T17:23:36.736Z,53.3
2018-06-28T17:24:26.041Z,53.3
2018-06-28T17:25:17.243Z,53.3
2018-06-28T17:26:06.345Z,53.3
2018-06-28T17:26:56.888Z,53.3
2018-06-28T17:27:46.755Z,53.3
2018-06-28T17:28:36.553Z,53.3
2018-06-28T17:29:26.876Z,53.3
2018-06-28T17:30:17.223Z,53.2
2018-06-28T17:31:07.024Z,53.2
2018-06-28T17:31:58.640Z,53.3
2018-06-28T17:32:47.651Z,53.2
2018-06-28T17:33:36.932Z,53.2
2018-06-28T17:34:27.232Z,53.2
2018-06-28T17:35:16.759Z,53.2
2018-06-28T17:36:07.659Z,53.2
2018-06-28T17:36:57.724Z,53.2
2018-06-28T17:37:47.833Z,53.1
2018-06-28T17:38:37.839Z,53.1
2018-06-28T17:39:27.642Z,53.1
2018-06-28T17:40:17.847Z,53.1
2018-06-28T17:41:07.231Z,53.1
2018-06-28T17:41:58.095Z,53.1
2018-06-28T17:42:48.102Z,53.1
2018-06-28T17:43:38.225Z,53.1
2018-06-28T17:44:28.338Z,53.1
2018-06-28T17:45:17.930Z,53.1
2018-06-28T17:46:08.109Z,53.1
2018-06-28T17:46:57.899Z,53.1
2018-06-28T17:47:47.991Z,53.1
2018-06-28T17:48:38.611Z,53.1
2018-06-28T17:49:28.660Z,53.1
2018-06-28T17:50:18.449Z,53
2018-06-28T17:51:09.409Z,53
2018-06-28T17:51:58.554Z,53
2018-06-28T17:52:48.910Z,53
2018-06-28T17:53:38.992Z,53
2018-06-28T17:54:29.096Z,53
2018-06-28T17:55:19.096Z,52.9
2018-06-28T17:56:09.160Z,53
2018-06-28T17:56:59.229Z,52.9
2018-06-28T17:57:49.020Z,52.9
2018-06-28T17:58:39.068Z,52.9
2018-06-28T17:59:29.419Z,52.9
2018-06-28T18:00:19.489Z,52.9
2018-06-28T18:01:09.252Z,52.9
2018-06-28T18:01:59.600Z,52.9
2018-06-28T18:02:49.655Z,52.9
2018-06-28T18:03:39.696Z,52.9
2018-06-28T18:04:29.305Z,52.9
2018-06-28T18:05:19.415Z,52.9
2018-06-28T18:06:09.367Z,52.9
2018-06-28T18:06:59.697Z,52.9
2018-06-28T18:07:49.510Z,52.8
2018-06-28T18:08:40.113Z,52.8
2018-06-28T18:09:30.250Z,52.8
2018-06-28T18:10:20.239Z,52.8
2018-06-28T18:11:10.012Z,52.8
2018-06-28T18:12:00.365Z,52.8
2018-06-28T18:12:51.104Z,52.8
2018-06-28T18:13:40.717Z,52.8
2018-06-28T18:14:30.549Z,52.8
2018-06-28T18:15:21.212Z,52.8
2018-06-28T18:16:10.696Z,52.8
2018-06-28T18:17:00.484Z,52.8
2018-06-28T18:17:50.517Z,52.8
2018-06-28T18:18:40.927Z,52.8
2018-06-28T18:19:30.925Z,52.8
2018-06-28T18:20:20.441Z,52.7
2018-06-28T18:21:11.060Z,52.8
2018-06-28T18:22:00.837Z,52.7
2018-06-28T18:22:50.697Z,52.7
2018-06-28T18:23:39.937Z,52.7
2018-06-28T18:24:30.809Z,52.7
2018-06-28T18:25:21.106Z,52.7
2018-06-28T18:26:10.673Z,52.6
2018-06-28T18:27:01.279Z,52.7
2018-06-28T18:27:51.014Z,52.6
2018-06-28T18:28:41.685Z,52.6
2018-06-28T18:29:31.391Z,52.6
2018-06-28T18:30:22.220Z,52.6
2018-06-28T18:31:11.238Z,52.6
2018-06-28T18:32:01.875Z,52.6
2018-06-28T18:32:51.952Z,52.6
2018-06-28T18:33:41.739Z,52.6
2018-06-28T18:34:31.496Z,52.6
2018-06-28T18:35:21.840Z,52.6
2018-06-28T18:36:12.162Z,52.6
2018-06-28T18:37:02.214Z,52.6
2018-06-28T18:37:51.742Z,52.6
2018-06-28T18:38:42.377Z,52.6
2018-06-28T18:39:32.424Z,52.5
2018-06-28T18:40:22.537Z,52.5
2018-06-28T18:41:12.281Z,52.5
2018-06-28T18:42:01.502Z,52.5
2018-06-28T18:42:52.687Z,52.5
2018-06-28T18:43:42.756Z,52.5
2018-06-28T18:44:32.546Z,52.5
2018-06-28T18:45:22.619Z,52.5
2018-06-28T18:46:12.647Z,52.4
2018-06-28T18:47:02.454Z,52.5
2018-06-28T18:47:52.512Z,52.4
2018-06-28T18:48:43.132Z,52.4
2018-06-28T18:49:32.611Z,52.4
2018-06-28T18:50:23.000Z,52.4
2018-06-28T18:51:12.752Z,52.4
2018-06-28T18:52:03.388Z,52.4
2018-06-28T18:53:43.577Z,52.4
2018-06-28T18:59:33.934Z,52.3
2018-06-28T19:00:23.724Z,52.3
2018-06-28T19:01:14.046Z,52.1
2018-06-28T19:02:04.608Z,52.1
2018-06-28T19:02:53.906Z,52.1
2018-06-28T19:03:43.975Z,52.2
2018-06-28T19:04:34.031Z,52.3
2018-06-28T19:05:24.095Z,52.5
2018-06-28T19:06:13.907Z,52.6
2018-06-28T19:07:04.228Z,52.8
2018-06-28T19:07:54.354Z,53
2018-06-28T19:08:44.123Z,53.3
2018-06-28T19:09:34.711Z,53.4
2018-06-28T19:10:24.485Z,53.7
2018-06-28T19:11:14.814Z,53.9
2018-06-28T19:12:04.865Z,54.1
2018-06-28T19:12:54.730Z,54.3
2018-06-28T19:13:44.790Z,54.6
2018-06-28T19:14:35.264Z,54.8
2018-06-28T19:15:25.123Z,55
2018-06-28T19:16:14.926Z,55.3
2018-06-28T19:17:05.273Z,55.4
2018-06-28T19:17:55.051Z,55.7
2018-06-28T19:18:45.392Z,55.9
2018-06-28T19:19:35.441Z,56.2
2018-06-28T19:20:24.683Z,56.4
2018-06-28T19:21:15.989Z,56.5
2018-06-28T19:22:05.631Z,56.6
2018-06-28T19:22:55.682Z,56.6
2018-06-28T19:23:45.744Z,56.7
2018-06-28T19:24:35.897Z,56.8
2018-06-28T19:25:25.343Z,56.8
2018-06-28T19:26:15.729Z,56.8
2018-06-28T19:27:05.469Z,56.9
2018-06-28T19:27:56.054Z,56.9
2018-06-28T19:28:45.585Z,56.9
2018-06-28T19:29:36.075Z,56.9
2018-06-28T19:30:26.030Z,56.9
2018-06-28T19:31:16.329Z,56.9
2018-06-28T19:32:06.389Z,56.9
2018-06-28T19:32:56.478Z,56.9
2018-06-28T19:33:46.523Z,56.9
2018-06-28T19:34:36.336Z,56.9
2018-06-28T19:35:26.636Z,56.9
2018-06-28T19:36:16.724Z,56.9
2018-06-28T19:37:06.812Z,56.9
2018-06-28T19:37:56.561Z,56.8
2018-06-28T19:38:46.887Z,56.8
2018-06-28T19:39:36.696Z,56.9
2018-06-28T19:40:27.040Z,56.8
2018-06-28T19:41:17.094Z,56.8
2018-06-28T19:42:07.163Z,56.8